Главная страница
METAR-TAF:

METAR-TAF

Аэропорты :

Кувейт, Кувейт

широта: 29-13N, долгота: 047-59E, высота над уровнем моря: 55 м

Текущие метеонаблюдения

Эта сводка был подготовлена 18 минут назад, в 10:00 UTC
Ветер 13 Узел от северный
Температура 45°C
Влажность 13%
Давление 996 hPa
Видимость 10 км и более
Нет облачности ниже 1500 м, и нет кучево-дождевой облачности

METAR: OKBK 161000Z 36013KT CAVOK 45/10 Q0996 NOSIG

Время: 13:18 (10:18 UTC)

Прогноз

Эта сводка был подготовлена 5 часа и 33 минут назад, в 04:45 UTC
Прогноз действительный с 16-го 06 UTC до 17-го 12 UTC
Ветер 12 Узел от северно-северо-западный с порывами до 25 Узел
Видимость: 7000 м
ясное небо

TAF: OKBK 160445Z 1606/1712 34012G25KT 7000 SKC

Метеонаблюдения и прогнозы для более 4000 аэропортов (сводки METAR и TAF).

Имеющиеся станции представлены на карте желтыми и красными точками.

Чтобы увидеть название станции, наведите на нее мышь.

Затем щелкните, чтобы увидеть метеонаблюдения и метеопрогнозы.

Управление картой: чтобы увеличить масштаб, щелкните зеленые кнопки с черным крестиком; чтобы уменьшить масштаб, щелкните зеленую кнопку с тире; для просмотра соседних карт щелкайте зеленые стрелки.


METAR-TAF: